Details From UKKK - Zhuliany Intl
To UKDE - Zaporizhzhia Intl
Flight Number -
Tags Generated
Created
Modified
Stats Distance 245 nm / 454 km
Max Altitude 0 ft / 0 m
Waypoints 3
Social Downloads 1
Likes 0
Share VATSIM

Download

Looking for another format? Having issues loading an existing format? Contact us
Advertisement - Login to hide

Notes

Generated

Route

UKKK RUBES UKDE

ID Type Via Altitude Latitude Longitude Leg Dist Tot Dist Heading (true) Name
O UKKK APT - 0 ft / 0 m 50.40113˚ 30.43699˚ - 0 nm - -
RUBES FIX - 0 ft / 0 m 47.86647˚ 35.31503˚ 244 nm 244 nm 127° / 130° -
O UKDE APT - 0 ft / 0 m 47.85666˚ 35.30911˚ 0 nm 245 nm 202° / 202° -

Altitude Profile

Advertisement - Login to hide

Weather


0- 5 10 15 20 25 30 35+ Temperature / ° C

Clouds and Precipitation
Forecast for 2018-05-26 06:00 UTC. Updated 2 hours ago

Ground ~20,000 ft ~40,000 ft Winds

UKKK

Details ICAO UKKK (IEV)
Name ZHULIANY INTL
Region Ukraine
Timezone Europe/Kiev (UTC+3.0)
Stats Elevation 586 ft / 179 m (AMSL)
Location 50.401694° 30.449697°
Runways 1
Magnetic Variation 7.649° E

METAR

UKKK 260700Z 07007MPS 040V100 CAVOK 19/08 Q1026 R08/70D NOSIG

Decode

TAF

TAF TAF UKKK 260502Z 2606/2706 07006G11MPS 9999 BKN030 TEMPO 2606/2616 09009G14MPS

Decode

Departure Runways

ID Width Length Bearing (true) Bearing (mag) Surface Threshold Offset Overrun Length
08 161 ft / 49 m 5,926 ft / 1,806 m 86.02° 78.37° Concrete 0 ft / 0 m 0 ft / 0 m
26 161 ft / 49 m 5,926 ft / 1,806 m 266.04° 258.39° Concrete 0 ft / 0 m 1,132 ft / 345 m

UKDE

Details ICAO UKDE (OZH)
Name ZAPORIZHZHIA INTL
Region Ukraine
Timezone Europe/Zaporozhye (UTC+3.0)
Stats Elevation 373 ft / 114 m (AMSL)
Location 47.867005° 35.315693°
Runways 1
Magnetic Variation 7.777° E

METAR

UKDE 260700Z 05009G15MPS 020V090 CAVOK 18/12 Q1019 R02L/////// TEMPO 05014G19MPS

Decode

TAF

Not found

Destination Runways

ID Width Length Bearing (true) Bearing (mag) Surface Threshold Offset Overrun Length
02 138 ft / 42 m 8,211 ft / 2,503 m 23.09° 15.31° Concrete 0 ft / 0 m 145 ft / 44 m
20 138 ft / 42 m 8,211 ft / 2,503 m 203.10° 195.32° Concrete 0 ft / 0 m 145 ft / 44 m

Approach Navaids

Runway Type Ident Frequency Range Bearing (true) Bearing (mag) Slope Elevation
02 Localiser IZA 110.30 MHz 18 nm / 33 km 23.43° 15.65° - 373 ft / 114 m (AMSL)
02 Glidescope IZA 110.30 MHz 10 nm / 19 km 23.10° 15.32° 2.70° 373 ft / 114 m (AMSL)
20 Localiser IZP 111.70 MHz 18 nm / 33 km 202.39° 194.62° - 373 ft / 114 m (AMSL)
20 Glidescope IZP 111.70 MHz 10 nm / 19 km 203.10° 195.32° 2.70° 373 ft / 114 m (AMSL)

Popular Alternatives